createdAt,value
2023-04-02T00:02:22.012Z,1.85
2023-04-02T00:05:34.857Z,1.50
2023-04-02T00:08:41.300Z,1.70
2023-04-02T00:11:45.018Z,1.73
2023-04-02T00:14:49.884Z,1.67
2023-04-02T00:17:52.349Z,1.50
2023-04-02T00:21:25.115Z,1.50
2023-04-02T00:24:27.666Z,1.58
2023-04-02T00:27:31.080Z,1.88
2023-04-02T00:30:33.549Z,1.40
2023-04-02T00:33:36.115Z,1.48
2023-04-02T00:36:38.557Z,1.52
2023-04-02T00:39:41.638Z,1.30
2023-04-02T00:42:44.945Z,1.23
2023-04-02T00:48:59.381Z,1.40
2023-04-02T00:52:06.725Z,1.23
2023-04-02T00:55:18.025Z,2.40
2023-04-02T00:58:27.323Z,2.10
2023-04-02T01:01:36.696Z,1.48
2023-04-02T01:04:39.330Z,1.27
2023-04-02T01:08:10.705Z,1.67
2023-04-02T01:11:14.158Z,1.40
2023-04-02T01:14:39.303Z,1.65
2023-04-02T01:18:14.369Z,1.33
2023-04-02T01:21:42.253Z,1.30
2023-04-02T01:24:44.664Z,1.20
2023-04-02T01:28:10.237Z,1.70
2023-04-02T01:31:12.674Z,1.23
2023-04-02T01:34:17.895Z,1.45
2023-04-02T01:37:50.675Z,1.50
2023-04-02T01:40:56.422Z,1.38
2023-04-02T01:44:03.343Z,1.20
2023-04-02T01:47:08.494Z,1.65
2023-04-02T01:50:22.014Z,1.20
2023-04-02T01:53:26.001Z,1.40
2023-04-02T02:02:38.116Z,1.13
2023-04-02T02:05:41.114Z,1.40
2023-04-02T02:08:51.978Z,1.30
2023-04-02T02:11:54.651Z,1.30
2023-04-02T02:14:57.105Z,1.35
2023-04-02T02:18:03.248Z,1.50
2023-04-02T02:21:05.918Z,1.30
2023-04-02T02:24:24.904Z,1.48
2023-04-02T02:27:44.170Z,1.40
2023-04-02T02:30:49.405Z,1.40
2023-04-02T02:33:53.237Z,1.50
2023-04-02T02:37:16.561Z,1.30
2023-04-02T02:40:29.417Z,1.60
2023-04-02T02:43:31.809Z,1.42
2023-04-02T02:46:34.487Z,1.50
2023-04-02T02:49:41.879Z,1.40
2023-04-02T02:52:46.676Z,1.50
2023-04-02T02:55:53.545Z,1.70
2023-04-02T02:59:00.416Z,1.60
2023-04-02T03:02:08.616Z,1.70
2023-04-02T03:05:20.630Z,1.60
2023-04-02T03:08:37.238Z,1.52
2023-04-02T03:12:08.694Z,1.73
2023-04-02T03:15:34.657Z,1.65
2023-04-02T03:18:58.289Z,1.60
2023-04-02T03:22:06.051Z,1.55
2023-04-02T03:25:24.795Z,1.80
2023-04-02T03:28:34.830Z,1.60
2023-04-02T03:32:07.862Z,1.67
2023-04-02T03:35:22.854Z,1.50
2023-04-02T03:38:34.854Z,1.60
2023-04-02T03:41:45.372Z,1.65
2023-04-02T03:45:11.969Z,1.80
2023-04-02T03:48:18.403Z,1.60
2023-04-02T03:51:32.938Z,1.38
2023-04-02T03:54:38.480Z,1.60
2023-04-02T03:57:52.245Z,1.80
2023-04-02T04:01:06.166Z,1.48
2023-04-02T04:04:17.344Z,1.65
2023-04-02T04:07:40.458Z,2.13
2023-04-02T04:10:43.053Z,1.30
2023-04-02T04:14:09.613Z,1.80
2023-04-02T04:17:24.926Z,1.70
2023-04-02T04:20:36.581Z,1.80
2023-04-02T04:23:41.072Z,1.60
2023-04-02T04:26:57.771Z,1.67
2023-04-02T04:30:06.084Z,1.63
2023-04-02T04:33:16.332Z,1.55
2023-04-02T04:36:28.961Z,1.58
2023-04-02T04:39:58.186Z,1.70
2023-04-02T04:43:06.406Z,1.30
2023-04-02T04:46:13.017Z,1.50
2023-04-02T04:49:35.367Z,1.55
2023-04-02T04:52:39.872Z,1.42
2023-04-02T04:55:47.369Z,1.55
2023-04-02T04:59:07.425Z,1.75
2023-04-02T05:02:41.256Z,1.85
2023-04-02T05:05:43.957Z,1.65
2023-04-02T05:08:48.692Z,1.90
2023-04-02T05:12:16.345Z,1.73
2023-04-02T05:15:32.677Z,1.60
2023-04-02T05:18:46.060Z,1.60
2023-04-02T05:22:41.404Z,1.40
2023-04-02T05:25:55.352Z,1.70
2023-04-02T05:29:19.990Z,1.92
2023-04-02T05:32:30.461Z,2.00
2023-04-02T05:35:35.969Z,1.70
2023-04-02T05:38:40.768Z,2.17
2023-04-02T05:41:46.063Z,1.90
2023-04-02T05:45:13.612Z,1.73
2023-04-02T05:48:19.017Z,1.75
2023-04-02T05:51:24.891Z,2.05
2023-04-02T05:54:31.581Z,1.83
2023-04-02T05:57:43.850Z,1.85
2023-04-02T06:00:53.633Z,1.88
2023-04-02T06:04:18.672Z,2.10
2023-04-02T06:07:22.254Z,1.63
2023-04-02T06:10:36.964Z,2.40
2023-04-02T06:13:39.666Z,2.17
2023-04-02T06:16:46.824Z,2.05
2023-04-02T06:19:49.446Z,1.95
2023-04-02T06:22:57.198Z,2.40
2023-04-02T06:26:27.158Z,1.83
2023-04-02T06:29:41.421Z,1.77
2023-04-02T06:32:48.985Z,2.85
2023-04-02T06:35:52.524Z,2.15
2023-04-02T06:39:08.481Z,2.22
2023-04-02T06:42:26.722Z,1.75
2023-04-02T06:45:47.262Z,2.28
2023-04-02T06:49:17.831Z,2.22
2023-04-02T06:52:28.665Z,2.42
2023-04-02T06:55:53.609Z,2.00
2023-04-02T06:59:00.743Z,2.42
2023-04-02T07:02:22.649Z,2.47
2023-04-02T07:05:25.538Z,2.05
2023-04-02T07:08:29.596Z,2.22
2023-04-02T07:11:32.287Z,2.13
2023-04-02T07:14:37.944Z,2.60
2023-04-02T07:17:40.807Z,1.95
2023-04-02T07:20:44.264Z,2.00
2023-04-02T07:23:49.355Z,2.60
2023-04-02T07:26:52.140Z,2.65
2023-04-02T07:29:55.075Z,2.35
2023-04-02T07:32:57.540Z,2.40
2023-04-02T07:36:00.016Z,2.25
2023-04-02T07:39:02.883Z,2.35
2023-04-02T07:42:05.563Z,2.25
2023-04-02T07:45:08.672Z,2.30
2023-04-02T07:48:12.668Z,2.42
2023-04-02T07:51:26.169Z,2.15
2023-04-02T07:54:28.757Z,2.25
2023-04-02T07:57:31.433Z,2.30
2023-04-02T08:00:33.957Z,2.30
2023-04-02T08:03:36.858Z,2.30
2023-04-02T08:06:39.721Z,2.60
2023-04-02T08:09:42.188Z,2.38
2023-04-02T08:12:45.037Z,2.67
2023-04-02T08:15:47.525Z,2.55
2023-04-02T08:18:50.566Z,2.72
2023-04-02T08:21:54.468Z,3.00
2023-04-02T08:24:57.213Z,3.30
2023-04-02T08:31:05.364Z,2.75
2023-04-02T08:34:08.117Z,3.00
2023-04-02T08:37:13.474Z,2.70
2023-04-02T08:40:24.920Z,2.97
2023-04-02T08:43:51.112Z,3.38
2023-04-02T08:46:56.946Z,2.90
2023-04-02T08:50:01.741Z,2.90
2023-04-02T08:53:06.508Z,2.78
2023-04-02T08:56:09.907Z,3.00
2023-04-02T08:59:21.352Z,3.17
2023-04-02T09:02:36.087Z,2.80
2023-04-02T09:05:41.168Z,2.70
2023-04-02T09:08:44.819Z,3.20
2023-04-02T09:11:53.336Z,3.20
2023-04-02T09:15:11.223Z,3.20
2023-04-02T09:18:17.731Z,3.13
2023-04-02T09:21:29.260Z,3.13
2023-04-02T09:24:31.836Z,3.35
2023-04-02T09:27:36.016Z,3.67
2023-04-02T09:30:38.348Z,3.42
2023-04-02T09:33:49.035Z,3.33
2023-04-02T09:36:52.154Z,3.00
2023-04-02T09:43:19.943Z,3.40
2023-04-02T09:46:26.047Z,3.22
2023-04-02T09:49:33.614Z,3.00
2023-04-02T09:52:36.472Z,3.10
2023-04-02T09:58:42.014Z,3.17
2023-04-02T10:01:54.102Z,2.60
2023-04-02T10:04:56.787Z,3.33
2023-04-02T10:08:25.449Z,3.15
2023-04-02T10:11:43.597Z,3.15
2023-04-02T10:14:48.474Z,2.80
2023-04-02T10:17:57.914Z,2.75
2023-04-02T10:21:01.444Z,3.40
2023-04-02T10:24:17.821Z,3.63
2023-04-02T10:27:32.012Z,3.22
2023-04-02T10:31:01.671Z,3.05
2023-04-02T10:34:07.577Z,3.35
2023-04-02T10:37:48.959Z,3.00
2023-04-02T10:40:59.637Z,3.70
2023-04-02T10:44:24.240Z,3.75
2023-04-02T10:47:41.396Z,3.30
2023-04-02T10:51:01.804Z,3.05
2023-04-02T10:54:13.502Z,3.58
2023-04-02T10:57:18.981Z,3.58
2023-04-02T11:00:27.949Z,3.85
2023-04-02T11:07:07.054Z,3.78
2023-04-02T11:10:16.482Z,3.60
2023-04-02T11:13:28.901Z,3.92
2023-04-02T11:16:31.516Z,3.65
2023-04-02T11:22:36.365Z,3.40
2023-04-02T11:25:38.992Z,3.20
2023-04-02T11:28:41.417Z,3.40
2023-04-02T11:31:44.144Z,3.85
2023-04-02T11:38:10.762Z,3.00
2023-04-02T11:41:13.163Z,2.90
2023-04-02T11:47:28.684Z,3.53
2023-04-02T11:50:34.632Z,2.78
2023-04-02T11:53:37.171Z,2.85
2023-04-02T11:56:53.328Z,2.55
2023-04-02T12:00:18.579Z,2.53
2023-04-02T12:03:53.084Z,3.03
2023-04-02T12:07:07.565Z,2.92
2023-04-02T12:10:18.373Z,3.25
2023-04-02T12:13:41.802Z,2.83
2023-04-02T12:16:44.434Z,2.78
2023-04-02T12:19:55.466Z,2.90
2023-04-02T12:22:58.192Z,3.47
2023-04-02T12:26:02.389Z,3.40
2023-04-02T12:29:24.910Z,3.10
2023-04-02T12:32:29.939Z,3.13
2023-04-02T12:35:34.323Z,2.95
2023-04-02T12:38:47.103Z,2.85
2023-04-02T12:41:49.821Z,2.70
2023-04-02T12:44:52.226Z,2.40
2023-04-02T12:47:54.956Z,2.38
2023-04-02T12:50:57.901Z,2.53
2023-04-02T12:54:00.595Z,2.08
2023-04-02T12:57:27.731Z,2.25
2023-04-02T13:03:36.503Z,2.47
2023-04-02T13:06:39.719Z,2.20
2023-04-02T13:09:46.176Z,2.50
2023-04-02T13:12:49.062Z,1.75
2023-04-02T13:16:04.112Z,2.08
2023-04-02T13:19:10.818Z,2.38
2023-04-02T13:22:30.836Z,2.60
2023-04-02T13:25:35.997Z,2.85
2023-04-02T13:28:38.667Z,3.20
2023-04-02T13:34:44.065Z,3.05
2023-04-02T13:37:46.570Z,2.65
2023-04-02T13:40:49.213Z,2.40
2023-04-02T13:46:54.663Z,2.40
2023-04-02T13:49:57.192Z,2.60
2023-04-02T13:53:04.604Z,2.67
2023-04-02T13:56:08.518Z,2.40
2023-04-02T13:59:11.061Z,2.30
2023-04-02T14:02:18.094Z,1.80
2023-04-02T14:05:38.889Z,2.72
2023-04-02T14:09:13.683Z,2.60
2023-04-02T14:12:31.492Z,2.03
2023-04-02T14:15:58.931Z,1.95
2023-04-02T14:19:07.629Z,1.90
2023-04-02T14:22:42.418Z,1.67
2023-04-02T14:26:02.200Z,2.88
2023-04-02T14:29:17.304Z,2.20
2023-04-02T14:35:43.033Z,1.98
2023-04-02T14:38:48.367Z,2.30
2023-04-02T14:41:59.312Z,2.20
2023-04-02T14:45:28.349Z,3.15
2023-04-02T14:48:31.119Z,2.03
2023-04-02T14:51:41.672Z,3.00
2023-04-02T14:54:50.291Z,3.42
2023-04-02T14:57:53.679Z,3.60
2023-04-02T15:01:20.777Z,2.80
2023-04-02T15:04:39.320Z,2.33
2023-04-02T15:08:01.183Z,3.03
2023-04-02T15:11:18.048Z,3.10
2023-04-02T15:14:29.558Z,2.17
2023-04-02T15:17:33.228Z,2.35
2023-04-02T15:20:57.266Z,2.83
2023-04-02T15:24:48.911Z,2.90
2023-04-02T15:28:12.610Z,2.97
2023-04-02T15:31:15.381Z,2.70
2023-04-02T15:37:43.213Z,2.13
2023-04-02T15:40:45.784Z,1.70
2023-04-02T15:43:55.874Z,1.50
2023-04-02T15:47:34.419Z,1.25
2023-04-02T15:50:44.856Z,1.40
2023-04-02T15:53:59.740Z,1.40
2023-04-02T15:57:27.860Z,1.40
2023-04-02T16:00:54.964Z,1.48
2023-04-02T16:04:19.651Z,2.25
2023-04-02T16:07:32.481Z,2.63
2023-04-02T16:10:41.978Z,2.83
2023-04-02T16:13:45.698Z,5.10
2023-04-02T16:16:49.191Z,7.13
2023-04-02T16:19:53.431Z,8.65
2023-04-02T16:23:05.717Z,5.78
2023-04-02T16:26:20.235Z,6.10
2023-04-02T16:29:40.754Z,5.13
2023-04-02T16:33:01.792Z,4.95
2023-04-02T16:36:31.423Z,3.63
2023-04-02T16:39:42.072Z,4.78
2023-04-02T16:43:14.016Z,4.72
2023-04-02T16:46:55.729Z,3.85
2023-04-02T16:50:16.430Z,3.47
2023-04-02T16:53:27.687Z,3.03
2023-04-02T16:56:39.652Z,3.15
2023-04-02T16:59:45.112Z,2.70
2023-04-02T17:03:15.096Z,2.88
2023-04-02T17:06:26.612Z,3.08
2023-04-02T17:09:39.893Z,3.30
2023-04-02T17:12:47.043Z,3.50
2023-04-02T17:16:14.559Z,3.45
2023-04-02T17:19:17.327Z,3.35
2023-04-02T17:22:21.723Z,3.85
2023-04-02T17:25:30.780Z,4.18
2023-04-02T17:28:39.288Z,3.67
2023-04-02T17:31:42.801Z,4.60
2023-04-02T17:34:45.855Z,4.10
2023-04-02T17:38:15.087Z,4.75
2023-04-02T17:41:38.665Z,3.97
2023-04-02T17:44:47.129Z,2.78
2023-04-02T17:47:56.411Z,2.40
2023-04-02T17:51:30.373Z,2.20
2023-04-02T17:54:42.767Z,2.00
2023-04-02T17:58:01.331Z,2.78
2023-04-02T18:01:06.997Z,2.13
2023-04-02T18:04:22.221Z,2.20
2023-04-02T18:07:43.344Z,2.38
2023-04-02T18:11:05.229Z,2.40
2023-04-02T18:14:37.846Z,2.30
2023-04-02T18:17:53.482Z,2.60
2023-04-02T18:21:26.695Z,2.92
2023-04-02T18:24:46.513Z,3.03
2023-04-02T18:28:16.472Z,3.47
2023-04-02T18:31:33.625Z,3.35
2023-04-02T18:34:48.155Z,3.28
2023-04-02T18:38:28.284Z,3.35
2023-04-02T18:41:49.181Z,3.10
2023-04-02T18:45:10.824Z,3.60
2023-04-02T18:48:28.967Z,4.10
2023-04-02T18:51:34.649Z,3.88
2023-04-02T18:54:52.960Z,4.05
2023-04-02T18:58:21.545Z,3.92
2023-04-02T19:01:33.519Z,3.80
2023-04-02T19:04:36.298Z,4.07
2023-04-02T19:07:39.346Z,4.07
2023-04-02T19:10:46.507Z,4.20
2023-04-02T19:13:51.421Z,4.15
2023-04-02T19:17:15.064Z,4.00
2023-04-02T19:20:44.186Z,4.18
2023-04-02T19:24:03.050Z,4.22
2023-04-02T19:27:28.451Z,7.75
2023-04-02T19:30:59.410Z,6.57
2023-04-02T19:34:46.944Z,3.63
2023-04-02T19:38:10.703Z,4.78
2023-04-02T19:41:36.073Z,4.20
2023-04-02T19:44:39.878Z,4.03
2023-04-02T19:47:42.470Z,4.28
2023-04-02T19:50:45.608Z,4.35
2023-04-02T19:53:47.983Z,3.95
2023-04-02T19:56:50.511Z,4.43
2023-04-02T19:59:53.002Z,4.28
2023-04-02T20:02:55.445Z,4.15
2023-04-02T20:06:10.057Z,4.57
2023-04-02T20:09:12.480Z,3.45
2023-04-02T20:12:14.913Z,3.88
2023-04-02T20:15:17.399Z,3.60
2023-04-02T20:18:20.569Z,4.70
2023-04-02T20:21:23.036Z,3.67
2023-04-02T20:24:25.963Z,3.80
2023-04-02T20:27:28.428Z,4.07
2023-04-02T20:30:32.513Z,3.50
2023-04-02T20:33:35.787Z,3.75
2023-04-02T20:39:41.010Z,3.85
2023-04-02T20:42:43.471Z,4.63
2023-04-02T20:45:59.266Z,4.45
2023-04-02T20:49:02.392Z,3.90
2023-04-02T20:52:05.248Z,4.13
2023-04-02T20:55:08.744Z,4.50
2023-04-02T21:01:24.049Z,4.10
2023-04-02T21:04:27.949Z,4.05
2023-04-02T21:07:30.576Z,5.60
2023-04-02T21:10:32.944Z,4.90
2023-04-02T21:13:36.764Z,9.43
2023-04-02T21:16:40.524Z,4.97
2023-04-02T21:19:43.969Z,5.78
2023-04-02T21:22:46.501Z,4.70
2023-04-02T21:25:59.598Z,3.70
2023-04-02T21:29:02.245Z,4.15
2023-04-02T21:32:14.485Z,3.90
2023-04-02T21:35:23.754Z,3.90
2023-04-02T21:38:26.529Z,3.90
2023-04-02T21:41:31.256Z,4.85
2023-04-02T21:44:33.755Z,5.10
2023-04-02T21:47:36.292Z,4.53
2023-04-02T21:50:38.748Z,4.53
2023-04-02T21:53:41.443Z,4.10
2023-04-02T21:56:44.841Z,4.85
2023-04-02T21:59:47.304Z,4.80
2023-04-02T22:02:49.833Z,4.45
2023-04-02T22:06:09.546Z,4.40
2023-04-02T22:09:16.797Z,3.05
2023-04-02T22:12:19.207Z,2.72
2023-04-02T22:15:21.737Z,2.67
2023-04-02T22:18:24.210Z,2.88
2023-04-02T22:21:26.723Z,1.58
2023-04-02T22:24:29.233Z,1.40
2023-04-02T22:27:31.635Z,1.13
2023-04-02T22:30:34.448Z,1.40
2023-04-02T22:33:37.323Z,1.33
2023-04-02T22:36:39.807Z,1.40
2023-04-02T22:39:42.186Z,2.05
2023-04-02T22:42:44.631Z,2.20
2023-04-02T22:45:50.069Z,1.65
2023-04-02T22:48:53.586Z,1.80
2023-04-02T22:51:56.012Z,3.00
2023-04-02T22:54:58.465Z,3.50
2023-04-02T22:58:00.836Z,3.90
2023-04-02T23:01:33.128Z,4.05
2023-04-02T23:04:36.405Z,4.38
2023-04-02T23:07:38.830Z,3.97
2023-04-02T23:10:41.355Z,4.32
2023-04-02T23:13:43.908Z,4.45
2023-04-02T23:16:46.406Z,3.92
2023-04-02T23:19:48.852Z,4.45
2023-04-02T23:22:51.375Z,4.28
2023-04-02T23:26:14.369Z,4.35
2023-04-02T23:29:16.744Z,4.30
2023-04-02T23:32:19.735Z,4.53
2023-04-02T23:35:22.154Z,4.22
2023-04-02T23:38:25.659Z,4.30
2023-04-02T23:41:28.440Z,4.38
2023-04-02T23:44:31.071Z,4.00
2023-04-02T23:47:33.635Z,4.93
2023-04-02T23:50:36.266Z,4.50
2023-04-02T23:53:39.148Z,4.25
2023-04-02T23:56:41.743Z,4.68
2023-04-02T23:59:44.108Z,4.22
